Time;durP1;ratioP1;P1;durP2;ratioP2;P2;SDS_P1;SDS_P2;PMS_P1;PMS_P2;Temp;Humidity;BMP_temperature;BMP_pressure;BME280_temperature;BME280_humidity;BME280_pressure;Samples;Min_cycle;Max_cycle;Signal;HPM_P1;HPM_P2
2021/03/10 05:01:57;;;;;;;;;;;6.00;99.90;;;;;;5347287;22;19925;-68
2021/03/10 05:04:23;;;;;;;;;;;6.00;99.90;;;;;;5056424;28;20256;-68
2021/03/10 05:06:49;;;;;;;;;;;6.10;99.90;;;;;;5055937;28;19924;-69
2021/03/10 05:09:15;;;;;;;;;;;6.10;99.90;;;;;;5055864;28;19932;-69
2021/03/10 05:11:41;;;;;;;;;;;6.10;99.90;;;;;;5055167;28;20434;-69
2021/03/10 05:14:07;;;;;;;;;;;6.10;99.90;;;;;;5054748;28;19925;-69
2021/03/10 05:16:33;;;;;;;;;;;6.10;99.90;;;;;;5054958;28;19948;-70
2021/03/10 05:19:00;;;;;;;;;;;6.10;99.90;;;;;;5054944;28;19978;-68
2021/03/10 05:21:26;;;;;;;;;;;6.10;99.90;;;;;;5055014;28;19932;-69
2021/03/10 05:23:52;;;;;;;;;;;6.10;99.90;;;;;;5054983;28;19932;-69
2021/03/10 05:26:18;;;;;;;;;;;6.10;99.90;;;;;;5054721;28;19929;-68
2021/03/10 05:28:45;;;;;;;;;;;6.10;99.90;;;;;;5055654;28;19971;-69
2021/03/10 05:31:11;;;;;;;;;;;6.10;99.90;;;;;;5055326;28;20311;-68
2021/03/10 05:33:37;;;;;;;;;;;6.10;99.90;;;;;;5054893;28;20441;-69
2021/03/10 05:36:04;;;;;;;;;;;6.10;99.90;;;;;;5055567;28;20035;-65
2021/03/10 05:38:31;;;;;;;;;;;6.20;99.90;;;;;;5054915;28;20291;-65
2021/03/10 05:40:57;;;;;;;;;;;6.10;99.90;;;;;;5054803;28;20349;-65
2021/03/10 05:43:23;;;;;;;;;;;6.20;99.90;;;;;;5054919;28;19924;-65
2021/03/10 05:45:49;;;;;;;;;;;6.20;99.90;;;;;;5054614;28;19925;-66
2021/03/10 05:48:16;;;;;;;;;;;6.20;99.90;;;;;;5056486;28;19925;-65
2021/03/10 05:50:42;;;;;;;;;;;6.20;99.90;;;;;;5058492;28;19925;-65
2021/03/10 05:53:10;;;;;;;;;;;6.10;99.90;;;;;;5058483;28;19931;-64
2021/03/10 05:55:37;;;;;;;;;;;6.10;99.90;;;;;;5058735;28;19939;-65
2021/03/10 05:58:08;;;;;;;;;;;6.20;99.90;;;;;;5058191;28;19925;-64
2021/03/10 06:00:34;;;;;;;;;;;6.10;99.90;;;;;;5058132;28;19925;-65
2021/03/10 06:03:00;;;;;;;;;;;6.30;99.90;;;;;;5058626;28;19964;-66
2021/03/10 06:05:26;;;;;;;;;;;6.30;99.90;;;;;;5058215;28;19925;-66
2021/03/10 06:07:59;;;;;;;;;;;6.50;99.90;;;;;;5058042;28;19929;-66
2021/03/10 06:10:35;;;;;;;;;;;6.60;99.90;;;;;;5072018;22;19932;-63
2021/03/10 06:13:01;;;;;;;;;;;6.70;99.90;;;;;;5057504;28;19932;-64
2021/03/10 06:15:27;;;;;;;;;;;6.80;99.90;;;;;;5057742;28;19925;-62
2021/03/10 06:17:53;;;;;;;;;;;6.80;99.90;;;;;;5057822;28;19928;-62
2021/03/10 06:20:23;;;;;;;;;;;6.80;99.90;;;;;;5057487;28;19925;-65
2021/03/10 06:22:49;;;;;;;;;;;6.90;99.90;;;;;;5057627;28;19929;-63
2021/03/10 06:25:15;;;;;;;;;;;6.80;99.90;;;;;;5057811;28;19924;-63
2021/03/10 06:27:51;;;;;;;;;;;6.90;99.90;;;;;;5057340;28;20382;-63
2021/03/10 06:30:18;;;;;;;;;;;6.80;99.90;;;;;;5057595;28;19931;-63
2021/03/10 06:32:44;;;;;;;;;;;6.80;99.90;;;;;;5057646;28;19924;-61
2021/03/10 06:35:10;;;;;;;;;;;6.80;99.90;;;;;;5056466;28;19929;-62
2021/03/10 06:37:36;;;;;;;;;;;6.80;99.90;;;;;;5056405;28;19948;-61
2021/03/10 06:40:06;;;;;;;;;;;6.90;99.90;;;;;;5056662;28;19925;-61
2021/03/10 06:42:32;;;;;;;;;;;6.90;99.90;;;;;;5056221;28;19924;-62
2021/03/10 06:44:59;;;;;;;;;;;6.90;99.90;;;;;;5056232;28;19925;-61
2021/03/10 06:47:34;;;;;;;;;;;7.00;99.90;;;;;;5056101;28;19925;-61
2021/03/10 06:50:00;;;;;;;;;;;7.10;99.90;;;;;;5056054;28;19936;-61
2021/03/10 06:52:26;;;;;;;;;;;7.30;99.90;;;;;;5056414;28;19932;-62
2021/03/10 06:54:55;;;;;;;;;;;7.40;99.90;;;;;;5056152;28;19932;-62
2021/03/10 06:57:22;;;;;;;;;;;7.70;99.90;;;;;;5055815;28;19924;-63
2021/03/10 06:59:49;;;;;;;;;;;7.80;99.90;;;;;;5055032;28;19990;-63
2021/03/10 07:02:17;;;;;;;;;;;7.80;99.90;;;;;;5055991;28;19932;-62
2021/03/10 07:04:43;;;;;;;;;;;7.80;99.90;;;;;;5056033;28;19949;-62
2021/03/10 07:07:10;;;;;;;;;;;7.70;99.90;;;;;;5055645;28;20397;-62
2021/03/10 07:09:36;;;;;;;;;;;7.60;99.90;;;;;;5055735;28;19925;-62
2021/03/10 07:12:03;;;;;;;;;;;7.40;99.90;;;;;;5056011;28;19924;-62
2021/03/10 07:14:29;;;;;;;;;;;7.40;99.90;;;;;;5055960;28;19925;-62
2021/03/10 07:16:55;;;;;;;;;;;7.40;99.90;;;;;;5055974;28;19925;-62
2021/03/10 07:19:23;;;;;;;;;;;7.30;99.90;;;;;;5055534;28;20379;-64
2021/03/10 07:21:51;;;;;;;;;;;7.20;99.90;;;;;;5056705;28;19932;-62
2021/03/10 07:24:18;;;;;;;;;;;7.20;99.90;;;;;;5055620;28;20398;-62
2021/03/10 07:28:11;;;;;;;;;;;7.30;99.90;;;;;;5091994;27;19927;-62
2021/03/10 07:30:38;;;;;;;;;;;7.30;99.90;;;;;;5091362;28;19935;-62
2021/03/10 07:33:05;;;;;;;;;;;7.40;99.90;;;;;;5091073;28;20282;-62
2021/03/10 07:35:32;;;;;;;;;;;7.30;99.90;;;;;;5092220;28;19925;-62
2021/03/10 07:37:58;;;;;;;;;;;7.40;99.90;;;;;;5091368;28;20279;-62
2021/03/10 07:40:24;;;;;;;;;;;7.40;99.90;;;;;;5091979;28;20477;-62
2021/03/10 07:42:50;;;;;;;;;;;7.30;99.90;;;;;;5091505;28;20290;-61
2021/03/10 07:45:17;;;;;;;;;;;7.30;99.90;;;;;;5090931;28;20393;-62
2021/03/10 07:47:50;;;;;;;;;;;7.50;99.90;;;;;;5091150;28;19924;-63
2021/03/10 07:50:16;;;;;;;;;;;7.50;99.90;;;;;;5091021;28;19924;-63
2021/03/10 07:52:49;;;;;;;;;;;7.60;99.90;;;;;;5091925;28;19924;-61
2021/03/10 07:55:15;;;;;;;;;;;7.70;99.90;;;;;;5091168;28;20398;-63
2021/03/10 07:57:48;;;;;;;;;;;7.70;99.90;;;;;;5091181;28;19924;-60
2021/03/10 08:00:15;;;;;;;;;;;7.80;99.90;;;;;;5091253;28;19924;-61
2021/03/10 08:02:42;;;;;;;;;;;7.90;99.90;;;;;;5091024;28;19931;-61
2021/03/10 08:05:19;;;;;;;;;;;8.00;99.90;;;;;;5090596;28;20405;-61
2021/03/10 08:07:45;;;;;;;;;;;8.10;99.90;;;;;;5090872;28;19931;-62
2021/03/10 08:10:11;;;;;;;;;;;8.20;99.90;;;;;;5091007;28;19931;-61
2021/03/10 08:12:38;;;;;;;;;;;8.20;99.90;;;;;;5090741;28;19989;-62
2021/03/10 08:15:04;;;;;;;;;;;8.40;99.90;;;;;;5090395;28;20404;-61
2021/03/10 08:17:31;;;;;;;;;;;8.60;99.90;;;;;;5090462;28;19924;-61
2021/03/10 08:19:58;;;;;;;;;;;8.70;99.90;;;;;;5090542;28;19930;-63
2021/03/10 08:22:25;;;;;;;;;;;8.80;99.90;;;;;;5090554;28;19931;-62
2021/03/10 08:24:51;;;;;;;;;;;8.90;99.90;;;;;;5090414;28;19925;-62
2021/03/10 08:27:28;;;;;;;;;;;9.00;99.90;;;;;;5104004;28;19935;-62
2021/03/10 08:29:54;;;;;;;;;;;9.10;99.90;;;;;;5110622;28;19928;-63
2021/03/10 08:32:23;;;;;;;;;;;9.20;99.90;;;;;;5110439;28;19924;-63
2021/03/10 08:34:49;;;;;;;;;;;9.40;99.90;;;;;;5110311;28;20293;-63
2021/03/10 08:37:17;;;;;;;;;;;9.50;99.90;;;;;;5108877;28;19924;-63
2021/03/10 08:39:44;;;;;;;;;;;9.50;99.90;;;;;;5096148;28;19924;-62
2021/03/10 08:42:10;;;;;;;;;;;9.40;99.90;;;;;;5096630;28;19935;-64
2021/03/10 08:44:40;;;;;;;;;;;9.20;99.90;;;;;;5096800;28;19924;-62
2021/03/10 08:47:10;;;;;;;;;;;9.30;99.90;;;;;;5096777;28;19954;-61
2021/03/10 08:49:36;;;;;;;;;;;9.40;99.90;;;;;;5097345;28;19924;-63
2021/03/10 08:52:07;;;;;;;;;;;9.50;99.90;;;;;;5096913;28;19930;-62
2021/03/10 08:54:44;;;;;;;;;;;9.70;99.90;;;;;;5096862;28;19924;-62
2021/03/10 08:57:10;;;;;;;;;;;9.90;99.90;;;;;;5096923;28;19931;-62
2021/03/10 08:59:36;;;;;;;;;;;10.30;99.90;;;;;;5098147;28;19931;-63
2021/03/10 09:02:02;;;;;;;;;;;10.60;99.90;;;;;;5098108;28;20301;-63
2021/03/10 09:04:28;;;;;;;;;;;10.60;99.90;;;;;;5096349;28;19924;-62
2021/03/10 09:06:56;;;;;;;;;;;10.70;99.90;;;;;;5096249;28;19935;-64
2021/03/10 09:09:22;;;;;;;;;;;10.80;99.90;;;;;;5096221;28;20409;-62
2021/03/10 09:11:49;;;;;;;;;;;10.80;99.90;;;;;;5096515;28;19924;-63
2021/03/10 09:14:15;;;;;;;;;;;11.00;99.90;;;;;;5096219;28;19924;-63
2021/03/10 09:16:56;;;;;;;;;;;11.10;99.90;;;;;;5096064;28;20369;-62
2021/03/10 09:19:29;;;;;;;;;;;11.20;99.90;;;;;;5095809;28;20429;-61
2021/03/10 09:22:04;;;;;;;;;;;11.40;99.90;;;;;;5095811;28;19924;-62
2021/03/10 09:24:30;;;;;;;;;;;11.40;99.90;;;;;;5096282;28;19924;-62
2021/03/10 09:26:57;;;;;;;;;;;11.60;99.90;;;;;;5095733;28;19928;-63
2021/03/10 09:29:23;;;;;;;;;;;12.10;99.90;;;;;;5095790;28;19932;-63
2021/03/10 09:31:53;;;;;;;;;;;12.50;99.90;;;;;;5095739;28;19924;-62
2021/03/10 09:34:19;;;;;;;;;;;12.80;99.90;;;;;;5095779;28;19928;-63
2021/03/10 09:36:46;;;;;;;;;;;12.90;99.90;;;;;;5095768;28;19924;-62
2021/03/10 09:39:14;;;;;;;;;;;12.90;99.90;;;;;;5095447;28;19977;-63
2021/03/10 09:41:46;;;;;;;;;;;12.90;99.90;;;;;;5095582;28;19924;-63
2021/03/10 09:44:13;;;;;;;;;;;12.70;99.90;;;;;;5095634;28;19928;-62
2021/03/10 09:46:39;;;;;;;;;;;12.90;99.90;;;;;;5095138;28;20374;-62
2021/03/10 09:49:06;;;;;;;;;;;13.30;99.90;;;;;;5094712;28;20366;-62
2021/03/10 09:51:32;;;;;;;;;;;13.30;99.90;;;;;;5094717;28;20286;-63
2021/03/10 09:53:59;;;;;;;;;;;13.60;99.90;;;;;;5095462;28;19935;-63
2021/03/10 09:56:25;;;;;;;;;;;13.70;99.90;;;;;;5095454;28;19924;-64
2021/03/10 09:58:54;;;;;;;;;;;14.60;99.90;;;;;;5095089;28;20324;-61
2021/03/10 10:01:21;;;;;;;;;;;15.30;99.90;;;;;;5095298;28;19924;-63
2021/03/10 10:03:48;;;;;;;;;;;15.70;98.90;;;;;;5095105;28;20390;-64
2021/03/10 10:06:17;;;;;;;;;;;15.70;98.00;;;;;;5095339;28;19924;-64
2021/03/10 10:08:43;;;;;;;;;;;15.90;97.20;;;;;;5095445;28;19924;-64
2021/03/10 10:11:09;;;;;;;;;;;16.60;97.20;;;;;;5095094;28;19924;-64
2021/03/10 10:13:36;;;;;;;;;;;17.10;94.80;;;;;;5095384;28;19924;-64
2021/03/10 10:16:02;;;;;;;;;;;17.50;92.60;;;;;;5095153;28;19978;-63
2021/03/10 10:18:29;;;;;;;;;;;17.40;87.60;;;;;;5095017;28;19935;-63
2021/03/10 10:20:55;;;;;;;;;;;18.00;86.50;;;;;;5094882;28;19977;-63
2021/03/10 10:23:21;;;;;;;;;;;17.90;71.40;;;;;;5095029;28;19978;-63
2021/03/10 10:25:47;;;;;;;;;;;17.80;71.80;;;;;;5095044;28;19998;-63
2021/03/10 10:28:13;;;;;;;;;;;17.40;75.60;;;;;;5095114;28;19925;-63
2021/03/10 10:30:39;;;;;;;;;;;16.70;71.80;;;;;;5095036;28;19924;-63
2021/03/10 10:33:05;;;;;;;;;;;16.10;70.90;;;;;;5095458;28;19947;-64
2021/03/10 10:35:32;;;;;;;;;;;15.50;74.40;;;;;;5097309;28;19928;-63
2021/03/10 10:37:58;;;;;;;;;;;15.30;75.30;;;;;;5096109;28;19951;-63
2021/03/10 10:40:24;;;;;;;;;;;15.40;75.00;;;;;;5094560;28;19924;-61
2021/03/10 10:42:51;;;;;;;;;;;15.10;73.90;;;;;;5095615;28;19978;-63
2021/03/10 10:45:17;;;;;;;;;;;14.90;73.70;;;;;;5095210;28;19924;-63
2021/03/10 10:47:44;;;;;;;;;;;14.60;72.80;;;;;;5095064;28;19974;-62
2021/03/10 10:50:11;;;;;;;;;;;14.30;75.40;;;;;;5094867;28;19924;-63
2021/03/10 10:52:39;;;;;;;;;;;13.80;75.70;;;;;;5094742;28;19924;-62
2021/03/10 10:55:05;;;;;;;;;;;13.50;77.60;;;;;;5094237;28;20014;-61
2021/03/10 10:57:31;;;;;;;;;;;12.80;78.20;;;;;;5094676;28;19924;-62
2021/03/10 10:59:57;;;;;;;;;;;12.50;79.30;;;;;;5094747;28;19924;-63
2021/03/10 11:02:23;;;;;;;;;;;12.40;80.80;;;;;;5094426;28;19924;-63
2021/03/10 11:04:49;;;;;;;;;;;12.10;80.60;;;;;;5094625;28;19989;-63
2021/03/10 11:07:15;;;;;;;;;;;12.10;82.60;;;;;;5094494;28;19924;-61
2021/03/10 11:09:42;;;;;;;;;;;12.20;84.90;;;;;;5093786;28;19923;-63
2021/03/10 11:12:11;;;;;;;;;;;12.40;84.10;;;;;;5094054;28;19934;-62
2021/03/10 11:14:38;;;;;;;;;;;12.60;83.40;;;;;;5093922;28;20311;-63
2021/03/10 11:17:04;;;;;;;;;;;12.80;79.00;;;;;;5095183;28;19924;-63
2021/03/10 11:19:30;;;;;;;;;;;13.00;82.40;;;;;;5094547;28;19931;-61
2021/03/10 11:21:56;;;;;;;;;;;12.90;76.20;;;;;;5094197;28;19924;-63
2021/03/10 11:24:22;;;;;;;;;;;13.20;76.20;;;;;;5093886;28;19931;-62
2021/03/10 11:26:49;;;;;;;;;;;12.90;76.60;;;;;;5094013;28;19928;-62
2021/03/10 11:29:15;;;;;;;;;;;13.10;75.90;;;;;;5094298;28;19950;-62
2021/03/10 11:31:41;;;;;;;;;;;12.90;76.00;;;;;;5094810;28;19950;-63
2021/03/10 11:34:07;;;;;;;;;;;13.10;77.30;;;;;;5094527;28;19946;-63
2021/03/10 11:36:33;;;;;;;;;;;13.50;81.90;;;;;;5094911;28;19924;-63
2021/03/10 11:39:00;;;;;;;;;;;13.40;77.40;;;;;;5094235;28;19924;-64
2021/03/10 11:41:26;;;;;;;;;;;13.50;75.40;;;;;;5094242;28;19924;-62
2021/03/10 11:43:52;;;;;;;;;;;13.50;75.80;;;;;;5094528;28;19924;-63
2021/03/10 11:46:18;;;;;;;;;;;13.60;79.40;;;;;;5093940;28;20335;-61
2021/03/10 11:48:44;;;;;;;;;;;13.30;74.00;;;;;;5093323;28;20275;-61
2021/03/10 11:51:11;;;;;;;;;;;13.50;78.40;;;;;;5093487;28;19924;-61
2021/03/10 11:53:37;;;;;;;;;;;13.30;74.40;;;;;;5093988;28;19924;-63
2021/03/10 11:56:03;;;;;;;;;;;13.20;76.20;;;;;;5094390;28;19924;-62
2021/03/10 11:58:29;;;;;;;;;;;13.20;79.10;;;;;;5094179;28;20382;-61
2021/03/10 12:00:56;;;;;;;;;;;13.10;76.80;;;;;;5095414;28;19924;-61
2021/03/10 12:03:22;;;;;;;;;;;13.00;76.80;;;;;;5100009;28;19932;-62
2021/03/10 12:05:48;;;;;;;;;;;12.90;79.60;;;;;;5100251;28;19973;-62
2021/03/10 12:08:14;;;;;;;;;;;12.70;83.10;;;;;;5099122;28;20431;-62
2021/03/10 12:10:41;;;;;;;;;;;12.50;80.00;;;;;;5100382;28;20380;-61
2021/03/10 12:13:07;;;;;;;;;;;12.00;82.20;;;;;;5097953;28;19924;-62
2021/03/10 12:15:33;;;;;;;;;;;11.90;81.50;;;;;;5097703;28;20382;-62
2021/03/10 12:18:00;;;;;;;;;;;11.70;82.70;;;;;;5098400;28;19924;-61
2021/03/10 12:20:26;;;;;;;;;;;11.70;83.40;;;;;;5097660;28;19977;-62
2021/03/10 12:22:52;;;;;;;;;;;11.50;82.80;;;;;;5115222;22;20401;-64
2021/03/10 12:25:19;;;;;;;;;;;11.20;84.80;;;;;;5078017;28;19932;-64
2021/03/10 12:27:45;;;;;;;;;;;11.30;84.00;;;;;;5077916;28;19924;-64
2021/03/10 12:30:11;;;;;;;;;;;11.40;86.10;;;;;;5077155;28;20336;-64
2021/03/10 12:32:38;;;;;;;;;;;11.50;85.50;;;;;;5077466;28;19974;-64
2021/03/10 12:35:06;;;;;;;;;;;11.70;88.40;;;;;;5077470;28;19935;-65
2021/03/10 12:37:32;;;;;;;;;;;11.90;83.50;;;;;;5077560;28;19924;-64
2021/03/10 12:39:59;;;;;;;;;;;12.30;82.90;;;;;;5077395;28;19925;-64
2021/03/10 12:42:25;;;;;;;;;;;12.70;80.90;;;;;;5077550;28;19924;-65
2021/03/10 12:44:51;;;;;;;;;;;13.00;73.90;;;;;;5077377;28;19924;-65
2021/03/10 12:47:18;;;;;;;;;;;13.10;76.60;;;;;;5077223;28;19931;-64
2021/03/10 12:49:44;;;;;;;;;;;13.40;73.30;;;;;;5077079;28;20328;-64
2021/03/10 12:52:11;;;;;;;;;;;13.30;72.50;;;;;;5076957;28;19924;-63
2021/03/10 12:54:37;;;;;;;;;;;13.30;73.80;;;;;;5076782;28;19925;-64
2021/03/10 12:57:04;;;;;;;;;;;13.20;75.60;;;;;;5076773;28;19928;-64
2021/03/10 12:59:30;;;;;;;;;;;12.80;75.30;;;;;;5077265;28;19925;-64
2021/03/10 13:01:56;;;;;;;;;;;13.10;77.00;;;;;;5077321;28;19931;-65
2021/03/10 13:04:22;;;;;;;;;;;13.40;74.40;;;;;;5076953;28;19970;-64
2021/03/10 13:06:48;;;;;;;;;;;13.50;76.20;;;;;;5077027;28;19925;-64
2021/03/10 13:09:15;;;;;;;;;;;13.80;75.40;;;;;;5076895;28;20394;-64
2021/03/10 13:11:41;;;;;;;;;;;13.90;75.80;;;;;;5077206;28;19925;-64
2021/03/10 13:14:07;;;;;;;;;;;14.40;74.00;;;;;;5080591;28;19929;-65
2021/03/10 13:16:34;;;;;;;;;;;14.20;69.30;;;;;;5082522;28;19925;-64
2021/03/10 13:19:00;;;;;;;;;;;14.40;69.30;;;;;;5081656;28;19925;-64
2021/03/10 13:21:27;;;;;;;;;;;14.20;68.30;;;;;;5081665;28;19925;-65
2021/03/10 13:23:53;;;;;;;;;;;14.30;69.90;;;;;;5081372;28;19929;-63
2021/03/10 13:26:20;;;;;;;;;;;14.20;74.00;;;;;;5081832;28;19925;-63
2021/03/10 13:28:47;;;;;;;;;;;14.20;70.30;;;;;;5081136;28;19924;-64
2021/03/10 13:31:13;;;;;;;;;;;14.00;68.70;;;;;;5081305;28;19988;-64
2021/03/10 13:33:39;;;;;;;;;;;13.70;69.70;;;;;;5082276;28;19932;-65
2021/03/10 13:36:05;;;;;;;;;;;13.70;69.50;;;;;;5080944;28;19925;-63
2021/03/10 13:38:31;;;;;;;;;;;13.60;70.20;;;;;;5079318;28;19947;-64
2021/03/10 13:40:57;;;;;;;;;;;13.50;71.90;;;;;;5078924;28;19924;-64
2021/03/10 13:43:24;;;;;;;;;;;13.40;74.00;;;;;;5078126;28;19924;-63
2021/03/10 13:45:50;;;;;;;;;;;12.90;73.40;;;;;;5079129;28;19925;-64
2021/03/10 13:48:19;;;;;;;;;;;13.10;74.00;;;;;;5079334;28;19925;-63
2021/03/10 13:50:46;;;;;;;;;;;13.00;74.60;;;;;;5081071;28;20429;-63
2021/03/10 13:53:12;;;;;;;;;;;13.40;73.70;;;;;;5082033;28;19924;-63
2021/03/10 13:55:38;;;;;;;;;;;13.40;71.80;;;;;;5079713;28;19924;-63
2021/03/10 13:58:04;;;;;;;;;;;13.20;70.10;;;;;;5080219;28;19951;-65
2021/03/10 14:00:31;;;;;;;;;;;13.30;73.10;;;;;;5076887;28;19928;-65
2021/03/10 14:02:57;;;;;;;;;;;13.20;70.90;;;;;;5075736;28;19924;-64
2021/03/10 14:05:23;;;;;;;;;;;13.30;71.90;;;;;;5075583;28;19974;-64
2021/03/10 14:07:50;;;;;;;;;;;13.40;74.00;;;;;;5075067;28;20367;-64
2021/03/10 14:10:17;;;;;;;;;;;13.10;71.20;;;;;;5075492;28;20021;-64
2021/03/10 14:12:43;;;;;;;;;;;13.10;72.60;;;;;;5075003;28;19925;-64
2021/03/10 14:15:10;;;;;;;;;;;13.30;73.70;;;;;;5075267;28;19924;-64
2021/03/10 14:17:37;;;;;;;;;;;13.40;75.00;;;;;;5075982;28;19925;-66
2021/03/10 14:20:03;;;;;;;;;;;13.50;73.70;;;;;;5081098;28;20378;-63
2021/03/10 14:22:29;;;;;;;;;;;13.60;70.20;;;;;;5081266;28;19932;-64
2021/03/10 14:24:55;;;;;;;;;;;13.60;70.00;;;;;;5080858;28;19936;-65
2021/03/10 14:27:22;;;;;;;;;;;13.60;69.50;;;;;;5081630;28;19924;-64
2021/03/10 14:29:48;;;;;;;;;;;13.40;69.80;;;;;;5081005;28;19932;-64
2021/03/10 14:32:14;;;;;;;;;;;13.20;69.30;;;;;;5078982;28;19928;-64
2021/03/10 14:34:41;;;;;;;;;;;13.30;72.70;;;;;;5080116;28;19924;-64
2021/03/10 14:37:07;;;;;;;;;;;13.40;73.00;;;;;;5080315;28;19925;-65
2021/03/10 14:39:33;;;;;;;;;;;13.10;69.90;;;;;;5081451;28;19997;-64
2021/03/10 14:42:00;;;;;;;;;;;12.80;70.00;;;;;;5081364;28;20325;-66
2021/03/10 14:44:28;;;;;;;;;;;12.80;72.00;;;;;;5081201;28;19932;-64
2021/03/10 14:46:54;;;;;;;;;;;12.90;73.40;;;;;;5076592;28;19928;-64
2021/03/10 14:49:20;;;;;;;;;;;12.90;76.90;;;;;;5076515;28;20400;-64
2021/03/10 14:51:47;;;;;;;;;;;12.80;75.30;;;;;;5076344;28;20309;-64
2021/03/10 14:54:13;;;;;;;;;;;12.90;72.90;;;;;;5077051;28;19928;-65
2021/03/10 14:56:39;;;;;;;;;;;12.70;69.70;;;;;;5075375;28;19936;-64
2021/03/10 14:59:05;;;;;;;;;;;12.60;71.50;;;;;;5075053;28;19924;-64
2021/03/10 15:01:31;;;;;;;;;;;12.70;73.70;;;;;;5074716;28;19931;-65
2021/03/10 15:03:57;;;;;;;;;;;12.70;74.40;;;;;;5075019;28;19931;-65
2021/03/10 15:06:23;;;;;;;;;;;12.60;70.90;;;;;;5074808;28;19931;-65
2021/03/10 15:08:50;;;;;;;;;;;12.50;69.50;;;;;;5074709;28;19924;-63
2021/03/10 15:11:16;;;;;;;;;;;12.60;69.40;;;;;;5074601;28;19947;-65
2021/03/10 15:13:42;;;;;;;;;;;12.60;69.80;;;;;;5074571;28;19925;-65
2021/03/10 15:16:08;;;;;;;;;;;12.50;69.40;;;;;;5074736;28;19924;-65
2021/03/10 15:18:34;;;;;;;;;;;12.50;71.10;;;;;;5074610;28;19928;-64
2021/03/10 15:21:00;;;;;;;;;;;12.40;68.10;;;;;;5074923;28;19924;-64
2021/03/10 15:23:26;;;;;;;;;;;12.30;69.00;;;;;;5074128;28;19931;-65
2021/03/10 15:25:53;;;;;;;;;;;12.50;66.80;;;;;;5074995;28;19954;-65
2021/03/10 15:28:19;;;;;;;;;;;12.50;68.00;;;;;;5074764;28;19925;-64
2021/03/10 15:30:45;;;;;;;;;;;12.60;67.10;;;;;;5074985;28;20032;-64
2021/03/10 15:33:11;;;;;;;;;;;12.60;66.70;;;;;;5074938;28;19929;-65
2021/03/10 15:35:37;;;;;;;;;;;12.60;68.00;;;;;;5074888;28;20382;-64
2021/03/10 15:38:04;;;;;;;;;;;12.70;68.20;;;;;;5074816;28;20099;-64
2021/03/10 15:40:30;;;;;;;;;;;12.30;67.20;;;;;;5074027;28;19932;-64
2021/03/10 15:42:56;;;;;;;;;;;12.30;68.00;;;;;;5074367;28;20006;-64
2021/03/10 15:45:23;;;;;;;;;;;12.10;69.40;;;;;;5074302;28;19932;-63
2021/03/10 15:47:49;;;;;;;;;;;12.20;71.90;;;;;;5074887;28;19931;-63
2021/03/10 15:50:16;;;;;;;;;;;12.40;71.10;;;;;;5078343;28;20018;-64
2021/03/10 15:52:42;;;;;;;;;;;12.40;71.70;;;;;;5078241;28;20329;-64
2021/03/10 15:55:09;;;;;;;;;;;12.50;69.80;;;;;;5078483;28;19924;-63
2021/03/10 15:57:35;;;;;;;;;;;12.50;69.50;;;;;;5078570;28;19946;-64
2021/03/10 16:00:02;;;;;;;;;;;12.40;68.20;;;;;;5078380;28;20034;-64
2021/03/10 16:02:28;;;;;;;;;;;12.20;67.20;;;;;;5078401;28;19925;-64
2021/03/10 16:04:54;;;;;;;;;;;12.00;68.80;;;;;;5078213;28;19928;-63
2021/03/10 16:07:20;;;;;;;;;;;11.90;68.70;;;;;;5078086;28;19924;-64
2021/03/10 16:09:47;;;;;;;;;;;11.80;69.40;;;;;;5078174;28;19932;-64
2021/03/10 16:12:13;;;;;;;;;;;11.60;70.00;;;;;;5077528;28;20390;-64
2021/03/10 16:14:39;;;;;;;;;;;11.60;70.70;;;;;;5077916;28;19928;-64
2021/03/10 16:17:06;;;;;;;;;;;11.40;70.40;;;;;;5078051;28;19925;-63
2021/03/10 16:19:33;;;;;;;;;;;11.30;71.10;;;;;;5077643;28;20272;-64
2021/03/10 16:21:59;;;;;;;;;;;11.30;71.90;;;;;;5077645;28;19924;-63
2021/03/10 16:24:25;;;;;;;;;;;11.20;71.30;;;;;;5077326;28;19924;-64
2021/03/10 16:26:51;;;;;;;;;;;11.10;70.50;;;;;;5076931;28;20393;-64
2021/03/10 16:29:17;;;;;;;;;;;11.00;71.20;;;;;;5077735;28;19924;-64
2021/03/10 16:31:43;;;;;;;;;;;11.00;72.40;;;;;;5077404;28;19925;-64
2021/03/10 16:34:10;;;;;;;;;;;11.00;72.30;;;;;;5077246;28;19925;-64
2021/03/10 16:36:36;;;;;;;;;;;10.90;72.50;;;;;;5077519;28;20382;-63
2021/03/10 16:39:02;;;;;;;;;;;10.80;71.90;;;;;;5077547;28;20012;-65
2021/03/10 16:41:29;;;;;;;;;;;10.80;71.90;;;;;;5077278;28;19929;-64
2021/03/10 16:43:55;;;;;;;;;;;10.80;72.80;;;;;;5077622;28;19936;-64
2021/03/10 16:46:21;;;;;;;;;;;10.70;72.90;;;;;;5076916;28;20476;-64
2021/03/10 16:48:47;;;;;;;;;;;10.80;73.70;;;;;;5077268;28;19928;-66
2021/03/10 16:51:14;;;;;;;;;;;10.80;86.20;;;;;;5077120;28;19960;-67
2021/03/10 16:53:42;;;;;;;;;;;10.90;83.70;;;;;;5077281;28;19964;-67
2021/03/10 16:56:08;;;;;;;;;;;11.20;84.80;;;;;;5077430;28;19925;-66
2021/03/10 16:58:34;;;;;;;;;;;11.40;92.50;;;;;;5076483;28;19931;-64
2021/03/10 17:01:00;;;;;;;;;;;11.50;80.40;;;;;;5077236;28;19986;-64
2021/03/10 17:03:26;;;;;;;;;;;11.40;75.70;;;;;;5076460;28;19924;-64
2021/03/10 17:05:53;;;;;;;;;;;11.40;75.30;;;;;;5077168;28;20403;-64
2021/03/10 17:08:20;;;;;;;;;;;11.30;74.40;;;;;;5077424;28;19924;-64
2021/03/10 17:10:46;;;;;;;;;;;11.20;74.20;;;;;;5077398;28;19924;-64
2021/03/10 17:13:13;;;;;;;;;;;11.10;74.10;;;;;;5077400;28;19925;-64
2021/03/10 17:15:39;;;;;;;;;;;10.90;74.50;;;;;;5077014;28;19947;-64
2021/03/10 17:18:05;;;;;;;;;;;10.80;74.70;;;;;;5077660;28;19978;-63
2021/03/10 17:20:31;;;;;;;;;;;10.70;74.70;;;;;;5076562;28;20387;-64
2021/03/10 17:22:57;;;;;;;;;;;10.50;75.00;;;;;;5076621;28;19924;-64
2021/03/10 17:25:24;;;;;;;;;;;10.30;75.50;;;;;;5076843;28;19924;-63
2021/03/10 17:27:50;;;;;;;;;;;10.20;76.50;;;;;;5076458;28;20378;-63
2021/03/10 17:30:17;;;;;;;;;;;10.20;76.70;;;;;;5076220;28;20382;-64
2021/03/10 17:32:44;;;;;;;;;;;10.10;77.00;;;;;;5076673;28;19928;-64
2021/03/10 17:35:10;;;;;;;;;;;10.10;77.30;;;;;;5076289;28;20276;-64
2021/03/10 17:37:36;;;;;;;;;;;10.00;77.10;;;;;;5076969;28;19924;-65
2021/03/10 17:40:02;;;;;;;;;;;10.00;77.30;;;;;;5076997;28;19947;-65
2021/03/10 17:42:29;;;;;;;;;;;10.00;77.50;;;;;;5077319;28;19924;-63
2021/03/10 17:44:56;;;;;;;;;;;10.00;79.00;;;;;;5076873;28;19932;-65
2021/03/10 17:47:23;;;;;;;;;;;9.90;79.40;;;;;;5076431;28;19932;-64
2021/03/10 17:49:49;;;;;;;;;;;9.90;79.30;;;;;;5076515;28;19932;-65
2021/03/10 17:52:15;;;;;;;;;;;9.90;78.90;;;;;;5076327;28;19928;-63
2021/03/10 17:54:41;;;;;;;;;;;9.80;79.00;;;;;;5076431;28;19924;-64
2021/03/10 17:57:07;;;;;;;;;;;9.80;78.90;;;;;;5076538;28;19924;-64
2021/03/10 17:59:34;;;;;;;;;;;9.80;78.90;;;;;;5076608;28;19931;-63
2021/03/10 18:02:00;;;;;;;;;;;9.80;79.40;;;;;;5076182;28;19925;-64
2021/03/10 18:04:26;;;;;;;;;;;9.80;79.50;;;;;;5075990;28;19924;-65
2021/03/10 18:06:52;;;;;;;;;;;9.80;79.60;;;;;;5076118;28;19925;-64
2021/03/10 18:09:18;;;;;;;;;;;9.70;79.40;;;;;;5076008;28;19925;-65
2021/03/10 18:11:44;;;;;;;;;;;9.60;79.90;;;;;;5074788;28;20387;-64
2021/03/10 18:14:10;;;;;;;;;;;9.60;80.20;;;;;;5075234;28;20379;-64
2021/03/10 18:16:38;;;;;;;;;;;9.60;80.50;;;;;;5075536;28;19924;-64
2021/03/10 18:19:04;;;;;;;;;;;9.60;81.20;;;;;;5075724;28;20329;-64
2021/03/10 18:21:33;;;;;;;;;;;9.70;81.10;;;;;;5075790;28;19929;-64
2021/03/10 18:23:59;;;;;;;;;;;9.60;81.00;;;;;;5126847;22;20301;-66
2021/03/10 18:26:25;;;;;;;;;;;9.60;80.90;;;;;;5136901;27;19976;-64
2021/03/10 18:28:51;;;;;;;;;;;9.60;80.90;;;;;;5136902;27;19923;-64
2021/03/10 18:31:17;;;;;;;;;;;9.60;83.00;;;;;;5137437;27;19923;-64
2021/03/10 18:33:44;;;;;;;;;;;9.60;82.30;;;;;;5136469;27;19934;-65
2021/03/10 18:36:11;;;;;;;;;;;9.60;81.90;;;;;;5136618;27;19924;-65
2021/03/10 18:38:37;;;;;;;;;;;9.50;81.50;;;;;;5137168;27;19924;-65
2021/03/10 18:41:03;;;;;;;;;;;9.50;81.40;;;;;;5137456;27;19956;-65
2021/03/10 18:43:30;;;;;;;;;;;9.50;81.80;;;;;;5156827;27;19923;-64
2021/03/10 18:45:56;;;;;;;;;;;9.50;81.90;;;;;;5139427;27;19930;-65
2021/03/10 18:48:22;;;;;;;;;;;9.50;82.50;;;;;;5138834;27;19930;-65
2021/03/10 18:50:49;;;;;;;;;;;9.50;82.30;;;;;;5141719;27;19924;-66
2021/03/10 18:53:15;;;;;;;;;;;9.50;83.20;;;;;;5138175;27;20036;-64
2021/03/10 18:55:41;;;;;;;;;;;9.40;83.00;;;;;;5139691;27;19934;-65
2021/03/10 18:58:07;;;;;;;;;;;9.40;82.50;;;;;;5137948;27;19923;-64
2021/03/10 19:00:33;;;;;;;;;;;9.40;82.20;;;;;;5137533;27;19934;-65
2021/03/10 19:03:00;;;;;;;;;;;9.40;82.60;;;;;;5137431;27;20380;-65
2021/03/10 19:05:26;;;;;;;;;;;9.30;82.60;;;;;;5137203;27;19924;-65
2021/03/10 19:07:53;;;;;;;;;;;9.30;82.70;;;;;;5137704;27;20389;-64
2021/03/10 19:10:19;;;;;;;;;;;9.30;82.70;;;;;;5137445;27;19930;-65
2021/03/10 19:12:45;;;;;;;;;;;9.30;83.00;;;;;;5137291;27;20357;-65
2021/03/10 19:15:12;;;;;;;;;;;9.20;84.10;;;;;;5137067;27;19923;-65
2021/03/10 19:17:39;;;;;;;;;;;9.20;85.00;;;;;;5136993;27;19964;-65
2021/03/10 19:20:06;;;;;;;;;;;9.10;84.30;;;;;;5137443;27;19923;-65